Metar Cercanos

 

LEPA - Palma De Mallorc, Spain
Distance from station: ONO 38km
Actualización: Fri, 14-May-2021 9:30am CEST
Few Clouds
Few Clouds
 Viento del NNO
Viento: NNO 15 km/h
Temperatura: 20°C
Rocío: 12°C
Humedad: 60%
Barómetro: 1012 hPa
Clouds: Few Clouds
Visibility: 10 km
Cloud details: Few Clouds 457 m
2021/05/14 07:30 LEPA 140730Z 33008KT 230V030 9999 FEW015 20/12 Q1012 NOSIG
LEMH - Mahon/Menorca Is, Spain
Distance from station: ENE 105km
Actualización: Fri, 14-May-2021 9:30am CEST
Muy nuboso
Muy nuboso
 Viento del N
Viento: N 24 km/h
Temperatura: 16°C
Rocío: 12°C
Humedad: 77%
Barómetro: 1011 hPa
Clouds: Muy nuboso
Visibility: 10 km
Cloud details: Few Clouds 457 m
Muy nuboso 1280 m
2021/05/14 07:30 LEMH 140730Z 36013KT 330V030 9999 FEW015 BKN042 16/12 Q1011
 
LEIB - Ibiza/Es Codola, Spain
Distance from station: OSO 165km
Actualización: Fri, 14-May-2021 9:30am CEST
Parcialmente nuboso
Parcialmente nuboso
 Viento del NNO
Viento: NNO 17 km/h
Temperatura: 20°C
Rocío: 11°C
Humedad: 56%
Barómetro: 1013 hPa
Clouds: Parcialmente nuboso
Visibility: 10 km
Cloud details: Parcialmente nuboso 1494 m
2021/05/14 07:30 LEIB 140730Z 34009KT 290V020 9999 SCT049 20/11 Q1013 NOSIG
LEBL - Barcelona Airpor, Spain
Distance from station: NNO 225km
Actualización: Fri, 14-May-2021 9:30am CEST
Muy nuboso
Muy nuboso
 Viento del ESE
Viento: ESE 9 km/h, Racha: 33 km/h
Temperatura: 16°C
Rocío: 12°C
Humedad: 77%
Barómetro: 1012 hPa
Clouds: Muy nuboso
Visibility: 10 km
Cloud details: Parcialmente nuboso 914 m
Muy nuboso 1524 m
2021/05/14 07:30 LEBL 140730Z 12005G18KT 040V190 9999 SCT030 BKN050 16/12 Q1012 NOSIG
 
LEVC - Valencia (civ/Mi, Spain
Distance from station: NO 188km
Actualización: Fri, 14-May-2021 9:30am CEST
Few Clouds
Few Clouds
 Viento del varies
Viento: varies 4 km/h
Temperatura: 20°C
Rocío: 8°C
Humedad: 46%
Barómetro: 1014 hPa
Clouds: Few Clouds
Visibility: 10 km
Cloud details: Few Clouds 914 m
2021/05/14 07:30 LEVC 140730Z VRB02KT 9999 FEW030 20/08 Q1014 NOSIG
LEGE - Gerona/Costa Bra, Spain
Distance from station: N 276km
Actualización: Fri, 14-May-2021 9:44am CEST
Lluvia débil, Muy nuboso
Lluvia débil, Muy nuboso
 Viento del E
Viento: E 6 km/h
Temperatura: 12°C
Rocío: 10°C
Humedad: 88%
Barómetro: 1012 hPa
Resumen: Lluvia débil
Clouds: Muy nuboso
Visibility: 10 km
Cloud details: Few Clouds 152 m
Parcialmente nuboso 1158 m
Muy nuboso 2012 m
2021/05/14 07:44 LEGE 140744Z 08003KT 050V110 9999 -RA FEW005 SCT038 BKN066 12/10 Q1012 RERA
 
LEAL - Alicante/El Alte, Spain
Distance from station: OSO 344km
Actualización: Fri, 14-May-2021 9:30am CEST
Few Clouds
Few Clouds
 Viento del NO
Viento: NO 24 km/h
Temperatura: 21°C
Rocío: 8°C
Humedad: 43%
Barómetro: 1015 hPa
Clouds: Few Clouds
Visibility: 10 km
Cloud details: Few Clouds 1219 m
2021/05/14 07:30 LEAL 140730Z 31013KT 260V350 9999 FEW040 21/08 Q1015 NOSIG
LEAM - Almeria Airport, Spain
Distance from station: SSO 56km
Actualización: Fri, 14-May-2021 9:30am CEST
Despejado
Despejado
 Viento del E
Viento: E 9 km/h
Temperatura: 24°C
Rocío: 11°C
Humedad: 44%
Barómetro: 1013 hPa
Resumen: Despejado
Visibility: greater than 10 km
2021/05/14 07:30 LEAM 140730Z 09005KT 050V120 CAVOK 24/11 Q1013
 
LEZG - Zaragoza (mil/Ci, Spain
Distance from station: NO 431km
Actualización: Fri, 14-May-2021 9:30am CEST
Despejado
Despejado
 Viento del ONO
Viento: ONO 30 km/h
Temperatura: 13°C
Rocío: 6°C
Humedad: 63%
Barómetro: 1018 hPa
Resumen: Despejado
Visibility: greater than 10 km
2021/05/14 07:30 LEZG 140730Z 30016KT 260V330 CAVOK 13/06 Q1018
LEMD - Madrid/Barajas, Spain
Distance from station: ONO 234km
Actualización: Fri, 14-May-2021 9:30am CEST
Parcialmente nuboso
Parcialmente nuboso
 Viento del ONO
Viento: ONO 11 km/h
Temperatura: 15°C
Rocío: 6°C
Humedad: 55%
Barómetro: 1017 hPa
Clouds: Parcialmente nuboso
Visibility: 10 km
Cloud details: Few Clouds 1341 m
Parcialmente nuboso 1524 m
2021/05/14 07:30 LEMD 140730Z 29006KT 250V340 9999 FEW044 SCT050 15/06 Q1017 NOSIG
 
LEGR - Granada Airport, Spain
Distance from station: OSO 62km
Actualización: Fri, 14-May-2021 9:30am CEST
Few Clouds
Few Clouds
 Viento del varies
Viento: varies 2 km/h
Temperatura: 16°C
Rocío: 11°C
Humedad: 72%
Barómetro: 1018 hPa
Clouds: Few Clouds
Visibility: 10 km
Cloud details: Few Clouds 762 m
2021/05/14 07:30 LEGR 140730Z VRB01KT 9999 FEW025 16/11 Q1018
LEMG - Malaga (civ/Mil), Spain
Distance from station: OSO 227km
Actualización: Fri, 14-May-2021 9:30am CEST
Few Clouds
Few Clouds
 Viento del ONO
Viento: ONO 35 km/h
Temperatura: 19°C
Rocío: 12°C
Humedad: 64%
Barómetro: 1016 hPa
Clouds: Few Clouds
Visibility: 10 km
Cloud details: Few Clouds 1524 m
2021/05/14 07:30 LEMG 140730Z 30019KT 9999 FEW050 19/12 Q1016 NOSIG
 
LEZL - Sevilla (civ/Mil, Spain
Distance from station: S 318km
Actualización: Fri, 14-May-2021 9:30am CEST
Despejado
Despejado
 Viento del N
Viento: N 11 km/h
Temperatura: 16°C
Rocío: 9°C
Humedad: 63%
Barómetro: 1019 hPa
Resumen: Despejado
Visibility: greater than 10 km
2021/05/14 07:30 LEZL 140730Z 36006KT 320V030 CAVOK 16/09 Q1019 NOSIG
LEVT - Vitoria, Spain
Distance from station: NO 226km
Actualización: Fri, 14-May-2021 9:30am CEST
Few Clouds
Few Clouds
 Viento del varies
Viento: varies 4 km/h
Temperatura: 9°C
Rocío: 6°C
Humedad: 82%
Barómetro: 1019 hPa
Clouds: Few Clouds
Visibility: 10 km
Cloud details: Few Clouds 853 m
2021/05/14 07:30 LEVT 140730Z VRB02KT 9999 FEW028 09/06 Q1019
 
LEBB - Bilbao/Sondica, Spain
Distance from station: NNO 235km
Actualización: Fri, 14-May-2021 9:30am CEST
Parcialmente nuboso
Parcialmente nuboso
 Viento del varies
Viento: varies 4 km/h
Temperatura: 13°C
Rocío: 10°C
Humedad: 82%
Barómetro: 1019 hPa
Clouds: Parcialmente nuboso
Visibility: 10 km
Cloud details: Few Clouds 1036 m
Parcialmente nuboso 1829 m
2021/05/14 07:30 LEBB 140730Z VRB02KT 9999 FEW034 SCT060 13/10 Q1019 TEMPO 3000 RA
LESO - San Sebastian/Fu, Spain
Distance from station: N 231km
Actualización: Fri, 14-May-2021 9:30am CEST
Muy nuboso
Muy nuboso
 Viento del SO
Viento: SO 13 km/h
Temperatura: 12°C
Rocío: 10°C
Humedad: 88%
Barómetro: 1018 hPa
Clouds: Muy nuboso
Visibility: 10 km
Cloud details: Parcialmente nuboso 518 m
Muy nuboso 914 m
2021/05/14 07:30 LESO 140730Z 23007KT 180V290 9999 SCT017 BKN030 12/10 Q1018
 
LEVD - Valladolid(Mil/C, Spain
Distance from station: ONO 239km
Actualización: Fri, 14-May-2021 9:30am CEST
Few Clouds
Few Clouds
 Viento del NNE
Viento: NNE 7 km/h
Temperatura: 8°C
Sensación frio: 7°C
Rocío: 7°C
Humedad: 93%
Barómetro: 1019 hPa
Clouds: Few Clouds
Visibility: 10 km
Cloud details: Few Clouds 122 m
2021/05/14 07:30 LEVD 140730Z 02004KT 330V070 9999 FEW004 08/07 Q1019
LESA - Salamanca (civ/M, Spain
Distance from station: ONO 349km
Actualización: Fri, 14-May-2021 9:30am CEST
Muy nuboso
Muy nuboso
 Viento del ONO
Viento: ONO 13 km/h
Temperatura: 9°C
Sensación frio: 7°C
Rocío: 6°C
Humedad: 82%
Barómetro: 1019 hPa
Clouds: Muy nuboso
Visibility: 10 km
Cloud details: Parcialmente nuboso 366 m
Muy nuboso 457 m
2021/05/14 07:30 LESA 140730Z 29007KT 250V340 9999 SCT012 BKN015 09/06 Q1019
 
LEXJ - Santander/Paraya, Spain
Distance from station: NNO 247km
Actualización: Fri, 14-May-2021 9:30am CEST
Cubierto
Cubierto
 Viento del SO
Viento: SO 9 km/h
Temperatura: 12°C
Rocío: 8°C
Humedad: 77%
Barómetro: 1019 hPa
Clouds: Cubierto
Visibility: 10 km
Cloud details: Few Clouds 671 m
Cubierto 1128 m
2021/05/14 07:30 LEXJ 140730Z 22005KT 180V250 9999 FEW022 OVC037 12/08 Q1019
LEAS - Asturias/Aviles, Spain
Distance from station: NO 214km
Actualización: Fri, 14-May-2021 9:30am CEST
Parcialmente nuboso
Parcialmente nuboso
 Viento del SO
Viento: SO 19 km/h
Temperatura: 11°C
Rocío: 6°C
Humedad: 72%
Barómetro: 1019 hPa
Clouds: Parcialmente nuboso
Visibility: 10 km
Cloud details: Few Clouds 914 m
Parcialmente nuboso 1676 m
2021/05/14 07:30 LEAS 140730Z 23010KT 9999 FEW030 SCT055 11/06 Q1019 NOSIG
 
LECO - La Coruna/Alvedr, Spain
Distance from station: ONO 222km
Actualización: Fri, 14-May-2021 9:30am CEST
Few Clouds
Few Clouds
 Viento del SSE
Viento: SSE 11 km/h
Temperatura: 9°C
Sensación frio: 7°C
Rocío: 9°C
Humedad: 100%
Barómetro: 1019 hPa
Clouds: Few Clouds
Visibility: 10 km
Cloud details: Few Clouds 457 m
2021/05/14 07:30 LECO 140730Z 16006KT 9999 FEW015 09/09 Q1019 NOSIG
LEVX - Vigo/Peinador, Spain
Distance from station: O 214km
Actualización: Fri, 14-May-2021 9:30am CEST
Parcialmente nuboso
Parcialmente nuboso
 Viento del SSO
Viento: SSO 11 km/h
Temperatura: 10°C
Sensación frio: 8°C
Rocío: 8°C
Humedad: 88%
Barómetro: 1020 hPa
Clouds: Parcialmente nuboso
Visibility: 10 km
Cloud details: Parcialmente nuboso 945 m
2021/05/14 07:30 LEVX 140730Z 21006KT 160V240 9999 SCT031 10/08 Q1020 TEMPO 0800 BCFG